createdAt,value
2018-05-23T00:01:38.271Z,22.27
2018-05-23T00:04:06.835Z,21.17
2018-05-23T00:12:11.957Z,23.90
2018-05-23T00:14:40.791Z,25.53
2018-05-23T00:17:09.630Z,22.80
2018-05-23T00:19:38.146Z,22.03
2018-05-23T00:22:07.216Z,23.40
2018-05-23T00:24:35.702Z,23.90
2018-05-23T00:27:04.233Z,22.43
2018-05-23T00:29:32.719Z,22.67
2018-05-23T00:32:01.214Z,21.87
2018-05-23T00:34:29.786Z,21.80
2018-05-23T00:36:58.358Z,20.83
2018-05-23T00:39:26.864Z,21.57
2018-05-23T00:41:55.392Z,20.97
2018-05-23T00:44:23.908Z,21.83
2018-05-23T00:46:52.406Z,20.10
2018-05-23T00:49:20.942Z,21.97
2018-05-23T00:51:49.448Z,22.10
2018-05-23T00:54:19.049Z,21.07
2018-05-23T00:56:48.687Z,21.00
2018-05-23T00:59:17.191Z,21.63
2018-05-23T01:01:45.701Z,21.80
2018-05-23T01:04:14.246Z,21.50
2018-05-23T01:06:42.780Z,19.70
2018-05-23T01:09:12.090Z,22.10
2018-05-23T01:11:41.932Z,19.97
2018-05-23T01:14:10.486Z,19.80
2018-05-23T01:16:39.666Z,21.43
2018-05-23T01:19:08.313Z,22.60
2018-05-23T01:21:36.848Z,21.33
2018-05-23T01:24:05.375Z,22.50
2018-05-23T01:26:34.482Z,22.57
2018-05-23T01:29:03.047Z,21.47
2018-05-23T01:31:50.052Z,21.07
2018-05-23T01:34:19.471Z,19.90
2018-05-23T01:36:48.033Z,20.47
2018-05-23T01:39:16.832Z,20.30
2018-05-23T01:41:55.534Z,22.40
2018-05-23T01:44:24.032Z,20.67
2018-05-23T01:47:03.051Z,21.67
2018-05-23T01:49:40.554Z,21.47
2018-05-23T01:52:09.262Z,21.90
2018-05-23T01:54:37.784Z,21.67
2018-05-23T01:57:06.362Z,20.00
2018-05-23T02:02:37.510Z,23.40
2018-05-23T02:05:06.046Z,23.43
2018-05-23T02:07:34.259Z,23.40
2018-05-23T02:10:02.767Z,20.50
2018-05-23T02:12:31.505Z,21.90
2018-05-23T02:15:00.242Z,21.03
2018-05-23T02:17:29.989Z,21.70
2018-05-23T02:19:58.650Z,20.83
2018-05-23T02:22:27.207Z,21.20
2018-05-23T02:24:55.732Z,22.77
2018-05-23T02:27:24.494Z,19.67
2018-05-23T02:29:53.075Z,19.57
2018-05-23T02:32:21.590Z,21.27
2018-05-23T02:34:50.142Z,19.77
2018-05-23T02:37:19.137Z,20.60
2018-05-23T02:39:47.699Z,19.47
2018-05-23T02:42:16.233Z,19.00
2018-05-23T02:44:45.251Z,17.40
2018-05-23T02:47:14.256Z,18.80
2018-05-23T02:49:42.848Z,20.27
2018-05-23T02:52:12.721Z,20.07
2018-05-23T02:54:41.754Z,21.47
2018-05-23T02:57:22.553Z,19.03
2018-05-23T03:00:19.311Z,19.47
2018-05-23T03:05:44.683Z,20.73
2018-05-23T03:08:13.267Z,18.93
2018-05-23T03:10:41.734Z,19.47
2018-05-23T03:13:11.114Z,18.33
2018-05-23T03:15:39.353Z,20.10
2018-05-23T03:18:09.088Z,20.40
2018-05-23T03:20:39.920Z,21.07
2018-05-23T03:23:09.808Z,19.80
2018-05-23T03:25:38.872Z,20.90
2018-05-23T03:28:08.526Z,21.40
2018-05-23T03:30:38.007Z,20.60
2018-05-23T03:33:07.603Z,20.20
2018-05-23T03:35:37.385Z,19.80
2018-05-23T03:38:06.957Z,19.53
2018-05-23T03:40:36.857Z,21.97
2018-05-23T03:43:06.450Z,22.90
2018-05-23T03:45:36.502Z,23.50
2018-05-23T03:48:06.547Z,23.73
2018-05-23T03:50:36.220Z,21.70
2018-05-23T03:56:06.313Z,21.80
2018-05-23T03:58:35.902Z,23.60
2018-05-23T04:01:12.400Z,23.30
2018-05-23T04:03:47.670Z,25.00
2018-05-23T04:06:23.665Z,23.03
2018-05-23T04:11:49.325Z,21.07
2018-05-23T04:14:18.884Z,23.53
2018-05-23T04:16:48.499Z,25.20
2018-05-23T04:19:18.039Z,23.60
2018-05-23T04:21:47.569Z,26.07
2018-05-23T04:27:18.324Z,23.40
2018-05-23T04:32:33.336Z,23.07
2018-05-23T04:35:18.913Z,25.13
2018-05-23T04:37:50.239Z,24.47
2018-05-23T04:40:50.433Z,24.47
2018-05-23T04:43:20.063Z,23.60
2018-05-23T04:48:35.863Z,24.87
2018-05-23T04:51:05.614Z,23.40
2018-05-23T04:53:36.061Z,24.40
2018-05-23T04:56:05.565Z,25.87
2018-05-23T04:58:35.362Z,24.83
2018-05-23T05:01:04.857Z,25.47
2018-05-23T05:03:35.434Z,24.77
2018-05-23T05:08:52.675Z,26.97
2018-05-23T05:11:34.572Z,29.73
2018-05-23T05:14:03.684Z,32.07
2018-05-23T05:16:33.189Z,30.50
2018-05-23T05:21:50.642Z,32.63
2018-05-23T05:24:20.122Z,35.70
2018-05-23T05:26:49.569Z,31.83
2018-05-23T05:29:19.025Z,30.83
2018-05-23T05:31:48.520Z,30.47
2018-05-23T05:37:06.488Z,30.17
2018-05-23T05:42:33.544Z,34.17
2018-05-23T05:45:18.869Z,30.43
2018-05-23T05:47:48.362Z,29.83
2018-05-23T05:54:47.325Z,29.83
2018-05-23T05:57:16.904Z,29.57
2018-05-23T05:59:46.483Z,29.70
2018-05-23T06:02:22.154Z,29.00
2018-05-23T06:04:55.217Z,30.40
2018-05-23T06:07:24.657Z,30.87
2018-05-23T06:09:54.249Z,29.77
2018-05-23T06:12:23.741Z,29.77
2018-05-23T06:14:53.313Z,29.70
2018-05-23T06:17:22.861Z,27.00
2018-05-23T06:19:52.408Z,29.60
2018-05-23T06:22:21.913Z,29.90
2018-05-23T06:24:51.518Z,33.90
2018-05-23T06:27:20.934Z,31.43
2018-05-23T06:29:50.390Z,32.93
2018-05-23T06:32:19.802Z,32.20
2018-05-23T06:34:49.237Z,31.40
2018-05-23T06:37:19.269Z,32.50
2018-05-23T06:39:48.756Z,35.67
2018-05-23T06:42:18.181Z,36.20
2018-05-23T06:44:47.703Z,35.60
2018-05-23T06:47:17.149Z,37.13
2018-05-23T06:49:46.596Z,35.53
2018-05-23T06:52:16.133Z,35.87
2018-05-23T06:54:45.609Z,36.10
2018-05-23T06:57:15.267Z,33.97
2018-05-23T06:59:44.700Z,33.30
2018-05-23T07:02:14.176Z,35.10
2018-05-23T07:04:43.637Z,33.77
2018-05-23T07:07:13.169Z,34.97
2018-05-23T07:09:42.601Z,35.70
2018-05-23T07:12:12.038Z,35.30
2018-05-23T07:14:41.567Z,38.60
2018-05-23T07:17:10.985Z,39.90
2018-05-23T07:19:40.521Z,37.13
2018-05-23T07:22:10.021Z,39.20
2018-05-23T07:24:39.752Z,36.40
2018-05-23T07:27:09.281Z,36.97
2018-05-23T07:29:38.804Z,35.83
2018-05-23T07:32:12.022Z,35.63
2018-05-23T07:34:42.284Z,40.53
2018-05-23T07:37:11.883Z,37.90
2018-05-23T07:39:41.391Z,39.60
2018-05-23T07:42:11.036Z,39.90
2018-05-23T07:44:40.584Z,36.00
2018-05-23T07:47:10.157Z,38.97
2018-05-23T07:49:39.656Z,40.83
2018-05-23T07:52:09.211Z,40.20
2018-05-23T07:54:39.117Z,41.83
2018-05-23T07:57:08.657Z,41.17
2018-05-23T07:59:38.168Z,43.23
2018-05-23T08:02:07.692Z,43.03
2018-05-23T08:04:36.353Z,45.90
2018-05-23T08:07:04.187Z,43.17
2018-05-23T08:09:32.781Z,43.77
2018-05-23T08:12:01.348Z,43.37
2018-05-23T08:17:06.363Z,49.80
2018-05-23T08:19:35.905Z,48.73
2018-05-23T08:22:04.424Z,48.90
2018-05-23T08:24:34.321Z,51.77
2018-05-23T08:27:02.850Z,52.37
2018-05-23T08:29:31.352Z,55.63
2018-05-23T08:31:59.863Z,56.00
2018-05-23T08:34:28.363Z,56.70
2018-05-23T08:36:56.830Z,59.93
2018-05-23T08:39:25.294Z,58.17
2018-05-23T08:41:53.785Z,52.53
2018-05-23T08:44:22.323Z,54.10
2018-05-23T08:46:50.846Z,52.57
2018-05-23T08:49:19.302Z,53.40
2018-05-23T08:51:47.815Z,52.43
2018-05-23T08:54:16.303Z,50.17
2018-05-23T08:56:44.793Z,52.40
2018-05-23T08:59:13.240Z,54.53
2018-05-23T09:01:41.731Z,50.57
2018-05-23T09:04:10.196Z,50.97
2018-05-23T09:06:38.663Z,49.40
2018-05-23T09:09:08.138Z,52.73
2018-05-23T09:11:37.900Z,53.70
2018-05-23T09:14:06.529Z,52.47
2018-05-23T09:16:35.043Z,47.97
2018-05-23T09:19:03.576Z,49.60
2018-05-23T09:21:32.081Z,50.83
2018-05-23T09:24:00.623Z,51.80
2018-05-23T09:26:29.109Z,57.03
2018-05-23T09:28:57.569Z,53.07
2018-05-23T09:31:27.691Z,52.83
2018-05-23T09:33:56.432Z,54.17
2018-05-23T09:36:25.333Z,49.30
2018-05-23T09:38:54.304Z,51.47
2018-05-23T09:41:25.038Z,50.70
2018-05-23T09:43:53.754Z,54.07
2018-05-23T09:46:23.278Z,50.33
2018-05-23T09:48:52.689Z,46.50
2018-05-23T09:51:22.196Z,48.83
2018-05-23T09:53:52.059Z,43.97
2018-05-23T09:56:22.488Z,43.57
2018-05-23T09:58:52.729Z,43.70
2018-05-23T10:01:22.641Z,42.73
2018-05-23T10:03:55.200Z,41.57
2018-05-23T10:06:26.557Z,39.40
2018-05-23T10:08:57.694Z,35.83
2018-05-23T10:11:28.267Z,36.70
2018-05-23T10:13:59.208Z,37.63
2018-05-23T10:16:30.695Z,38.53
2018-05-23T10:19:02.045Z,38.50
2018-05-23T10:21:32.697Z,38.67
2018-05-23T10:24:03.745Z,38.90
2018-05-23T10:26:33.642Z,30.00
2018-05-23T10:29:02.302Z,36.07
2018-05-23T10:31:31.077Z,32.10
2018-05-23T10:33:59.630Z,33.73
2018-05-23T10:36:28.107Z,35.97
2018-05-23T10:38:56.717Z,36.90
2018-05-23T10:41:25.406Z,34.50
2018-05-23T10:43:54.009Z,41.30
2018-05-23T10:46:23.171Z,46.63
2018-05-23T10:48:51.756Z,48.33
2018-05-23T10:51:20.279Z,47.40
2018-05-23T10:53:48.822Z,46.43
2018-05-23T10:56:16.995Z,40.33
2018-05-23T10:58:45.555Z,37.10
2018-05-23T11:01:14.325Z,42.53
2018-05-23T11:03:43.997Z,41.80
2018-05-23T11:06:12.719Z,46.03
2018-05-23T11:08:41.917Z,50.83
2018-05-23T11:11:10.598Z,44.10
2018-05-23T11:13:39.458Z,43.17
2018-05-23T11:16:07.995Z,40.77
2018-05-23T11:18:36.572Z,35.23
2018-05-23T11:21:05.078Z,38.40
2018-05-23T11:23:33.558Z,37.80
2018-05-23T11:26:02.664Z,33.70
2018-05-23T11:28:31.211Z,32.40
2018-05-23T11:30:59.709Z,30.40
2018-05-23T11:33:28.275Z,29.97
2018-05-23T11:35:56.919Z,29.37
2018-05-23T11:38:25.511Z,31.30
2018-05-23T11:40:54.010Z,33.33
2018-05-23T11:43:22.552Z,31.27
2018-05-23T11:45:51.176Z,30.97
2018-05-23T11:48:19.768Z,28.80
2018-05-23T11:50:48.460Z,31.93
2018-05-23T11:53:16.951Z,34.37
2018-05-23T11:55:45.252Z,32.80
2018-05-23T11:58:13.936Z,32.93
2018-05-23T12:00:42.723Z,29.30
2018-05-23T12:03:11.235Z,23.33
2018-05-23T12:05:39.760Z,20.83
2018-05-23T12:08:08.351Z,21.43
2018-05-23T12:10:36.973Z,19.53
2018-05-23T12:13:05.543Z,18.60
2018-05-23T12:15:34.043Z,19.20
2018-05-23T12:18:02.535Z,19.80
2018-05-23T12:20:30.958Z,18.97
2018-05-23T12:22:59.437Z,20.20
2018-05-23T12:25:28.200Z,22.80
2018-05-23T12:27:56.914Z,25.20
2018-05-23T12:30:25.570Z,24.93
2018-05-23T12:32:54.462Z,23.27
2018-05-23T12:35:27.667Z,24.90
2018-05-23T12:37:56.184Z,28.30
2018-05-23T12:40:24.619Z,25.13
2018-05-23T12:42:53.145Z,24.63
2018-05-23T12:45:21.636Z,25.50
2018-05-23T12:47:50.270Z,25.77
2018-05-23T12:50:18.793Z,23.03
2018-05-23T12:52:50.615Z,23.83
2018-05-23T12:55:19.071Z,23.10
2018-05-23T12:57:47.579Z,24.20
2018-05-23T13:00:16.064Z,23.53
2018-05-23T13:02:44.576Z,22.83
2018-05-23T13:05:13.172Z,22.07
2018-05-23T13:07:42.600Z,23.03
2018-05-23T13:10:11.033Z,21.77
2018-05-23T13:12:39.574Z,22.50
2018-05-23T13:15:08.187Z,22.90
2018-05-23T13:17:37.853Z,20.10
2018-05-23T13:20:05.955Z,21.03
2018-05-23T13:22:34.504Z,19.07
2018-05-23T13:25:02.880Z,20.67
2018-05-23T13:27:32.104Z,21.30
2018-05-23T13:30:00.555Z,23.40
2018-05-23T13:32:29.085Z,23.40
2018-05-23T13:34:57.564Z,22.43
2018-05-23T13:37:26.018Z,19.50
2018-05-23T13:39:54.529Z,19.20
2018-05-23T13:42:24.038Z,16.00
2018-05-23T13:44:52.644Z,15.37
2018-05-23T13:47:21.051Z,16.93
2018-05-23T13:49:49.577Z,15.80
2018-05-23T13:52:18.089Z,14.63
2018-05-23T13:54:46.597Z,14.60
2018-05-23T13:57:16.194Z,15.83
2018-05-23T13:59:45.438Z,13.40
2018-05-23T14:02:20.194Z,14.93
2018-05-23T14:04:48.678Z,15.80
2018-05-23T14:07:17.122Z,14.73
2018-05-23T14:09:45.695Z,15.60
2018-05-23T14:12:15.936Z,13.90
2018-05-23T14:14:46.597Z,11.93
2018-05-23T14:17:18.489Z,11.00
2018-05-23T14:19:49.832Z,10.07
2018-05-23T14:22:18.288Z,9.30
2018-05-23T14:24:46.741Z,7.63
2018-05-23T14:27:15.519Z,7.53
2018-05-23T14:29:43.994Z,7.37
2018-05-23T14:32:14.707Z,8.13
2018-05-23T14:34:44.358Z,7.23
2018-05-23T14:37:12.841Z,7.63
2018-05-23T14:39:41.507Z,5.40
2018-05-23T14:42:09.998Z,6.10
2018-05-23T14:44:38.504Z,6.20
2018-05-23T14:47:06.880Z,7.07
2018-05-23T14:49:35.829Z,6.70
2018-05-23T14:52:07.355Z,7.37
2018-05-23T14:54:36.117Z,6.33
2018-05-23T14:57:03.985Z,8.93
2018-05-23T14:59:32.481Z,7.67
2018-05-23T15:02:00.971Z,8.47
2018-05-23T15:04:29.774Z,7.93
2018-05-23T15:07:00.269Z,7.30
2018-05-23T15:09:45.127Z,8.60
2018-05-23T15:12:13.716Z,7.57
2018-05-23T15:14:42.230Z,8.57
2018-05-23T15:17:10.934Z,7.03
2018-05-23T15:19:39.594Z,8.00
2018-05-23T15:22:08.228Z,7.93
2018-05-23T15:24:36.938Z,8.60
2018-05-23T15:27:04.847Z,8.23
2018-05-23T15:29:39.595Z,8.67
2018-05-23T15:32:14.626Z,8.07
2018-05-23T15:34:43.359Z,7.10
2018-05-23T15:37:11.923Z,7.80
2018-05-23T15:45:21.323Z,7.00
2018-05-23T15:47:49.875Z,7.90
2018-05-23T15:50:18.359Z,6.63
2018-05-23T15:52:51.228Z,8.40
2018-05-23T15:55:27.695Z,7.77
2018-05-23T15:57:58.890Z,8.10
2018-05-23T16:00:29.417Z,7.97
2018-05-23T16:03:02.355Z,7.73
2018-05-23T16:05:32.917Z,7.47
2018-05-23T16:08:02.715Z,7.50
2018-05-23T16:10:34.505Z,6.90
2018-05-23T16:13:03.798Z,8.60
2018-05-23T16:15:34.565Z,8.77
2018-05-23T16:18:03.167Z,7.33
2018-05-23T16:20:31.754Z,8.00
2018-05-23T16:23:00.371Z,8.93
2018-05-23T16:25:30.025Z,8.57
2018-05-23T16:27:58.561Z,8.60
2018-05-23T16:30:27.051Z,8.70
2018-05-23T16:32:56.736Z,7.37
2018-05-23T16:35:25.272Z,8.37
2018-05-23T16:37:54.777Z,9.53
2018-05-23T16:40:23.282Z,9.37
2018-05-23T16:42:51.797Z,9.80
2018-05-23T16:45:21.064Z,9.47
2018-05-23T16:47:49.577Z,9.37
2018-05-23T16:50:18.327Z,10.23
2018-05-23T16:52:46.829Z,9.50
2018-05-23T16:55:15.307Z,9.13
2018-05-23T16:57:43.811Z,11.27
2018-05-23T17:00:13.340Z,10.00
2018-05-23T17:02:41.829Z,10.57
2018-05-23T17:05:19.753Z,9.30
2018-05-23T17:10:45.738Z,11.47
2018-05-23T17:13:22.580Z,10.67
2018-05-23T17:15:51.789Z,10.90
2018-05-23T17:18:20.226Z,11.70
2018-05-23T17:20:48.771Z,11.00
2018-05-23T17:23:17.334Z,11.90
2018-05-23T17:25:45.851Z,11.27
2018-05-23T17:28:16.091Z,11.27
2018-05-23T17:30:49.191Z,11.27
2018-05-23T17:33:18.170Z,10.83
2018-05-23T17:35:52.709Z,11.80
2018-05-23T17:38:21.235Z,11.37
2018-05-23T17:40:49.810Z,12.17
2018-05-23T17:43:18.431Z,12.73
2018-05-23T17:45:51.096Z,11.57
2018-05-23T17:48:19.733Z,11.33
2018-05-23T17:50:49.215Z,11.60
2018-05-23T17:53:17.734Z,11.00
2018-05-23T17:55:45.984Z,12.50
2018-05-23T17:58:14.495Z,10.67
2018-05-23T18:00:46.969Z,12.53
2018-05-23T18:03:15.470Z,13.37
2018-05-23T18:05:45.290Z,12.10
2018-05-23T18:08:14.456Z,11.80
2018-05-23T18:10:42.938Z,12.07
2018-05-23T18:13:11.435Z,13.23
2018-05-23T18:15:39.944Z,13.07
2018-05-23T18:18:08.452Z,12.63
2018-05-23T18:20:37.667Z,12.27
2018-05-23T18:23:06.334Z,12.40
2018-05-23T18:25:34.801Z,12.40
2018-05-23T18:28:03.654Z,12.23
2018-05-23T18:30:48.169Z,11.40
2018-05-23T18:33:16.678Z,12.13
2018-05-23T18:35:45.179Z,12.00
2018-05-23T18:38:13.686Z,12.20
2018-05-23T18:40:43.023Z,12.60
2018-05-23T18:43:11.559Z,13.20
2018-05-23T18:45:42.109Z,12.70
2018-05-23T18:54:13.326Z,11.70
2018-05-23T18:56:51.265Z,12.37
2018-05-23T18:59:21.815Z,11.73
2018-05-23T19:01:51.201Z,11.63
2018-05-23T19:04:19.863Z,11.73
2018-05-23T19:06:52.316Z,12.77
2018-05-23T19:09:20.842Z,12.23
2018-05-23T19:11:49.370Z,13.20
2018-05-23T19:14:17.892Z,12.77
2018-05-23T19:16:46.411Z,11.50
2018-05-23T19:19:14.959Z,12.20
2018-05-23T19:21:43.474Z,11.93
2018-05-23T19:24:11.967Z,12.27
2018-05-23T19:26:40.637Z,11.10
2018-05-23T19:29:09.607Z,10.60
2018-05-23T19:31:40.021Z,11.77
2018-05-23T19:34:09.748Z,10.00
2018-05-23T19:36:39.046Z,10.57
2018-05-23T19:39:07.725Z,10.90
2018-05-23T19:44:26.469Z,11.20
2018-05-23T19:46:57.131Z,10.67
2018-05-23T19:52:31.099Z,11.20
2018-05-23T19:54:59.606Z,10.87
2018-05-23T19:57:27.746Z,11.27
2018-05-23T19:59:56.809Z,10.10
2018-05-23T20:02:27.607Z,10.97
2018-05-23T20:04:56.378Z,9.57
2018-05-23T20:07:24.933Z,10.07
2018-05-23T20:09:53.430Z,10.37
2018-05-23T20:12:21.931Z,10.30
2018-05-23T20:16:12.340Z,9.63
2018-05-23T20:18:40.901Z,11.40
2018-05-23T20:21:09.479Z,11.60
2018-05-23T20:23:38.673Z,10.90
2018-05-23T20:26:07.571Z,9.33
2018-05-23T20:28:39.882Z,9.50
2018-05-23T20:31:09.169Z,9.20
2018-05-23T20:33:37.935Z,9.07
2018-05-23T20:36:07.930Z,10.03
2018-05-23T20:38:37.565Z,8.20
2018-05-23T20:41:06.157Z,9.50
2018-05-23T20:46:29.258Z,8.47
2018-05-23T20:48:57.710Z,9.20
2018-05-23T20:51:26.587Z,8.37
2018-05-23T20:54:07.081Z,8.40
2018-05-23T20:56:35.608Z,9.77
2018-05-23T20:59:04.162Z,11.83
2018-05-23T21:01:32.651Z,10.27
2018-05-23T21:04:01.224Z,10.47
2018-05-23T21:06:29.832Z,12.23
2018-05-23T21:08:58.404Z,11.80
2018-05-23T21:11:27.551Z,11.27
2018-05-23T21:13:56.024Z,9.37
2018-05-23T21:16:24.579Z,10.30
2018-05-23T21:18:53.115Z,10.50
2018-05-23T21:21:21.693Z,10.53
2018-05-23T21:23:50.208Z,10.80
2018-05-23T21:26:22.095Z,9.97
2018-05-23T21:28:50.618Z,10.77
2018-05-23T21:31:19.168Z,9.93
2018-05-23T21:33:47.702Z,10.83
2018-05-23T21:36:21.521Z,10.10
2018-05-23T21:38:50.024Z,10.97
2018-05-23T21:41:18.555Z,10.10
2018-05-23T21:43:47.278Z,10.10
2018-05-23T21:46:15.819Z,9.90
2018-05-23T21:48:44.313Z,9.03
2018-05-23T21:51:12.813Z,10.47
2018-05-23T21:53:41.469Z,9.37
2018-05-23T21:56:10.018Z,10.20
2018-05-23T21:58:38.535Z,8.70
2018-05-23T22:01:18.975Z,9.73
2018-05-23T22:03:47.553Z,9.20
2018-05-23T22:06:16.148Z,9.20
2018-05-23T22:08:44.773Z,9.53
2018-05-23T22:11:13.837Z,9.23
2018-05-23T22:13:43.357Z,10.00
2018-05-23T22:16:11.914Z,10.23
2018-05-23T22:18:40.413Z,10.03
2018-05-23T22:21:08.886Z,11.40
2018-05-23T22:23:37.396Z,10.20
2018-05-23T22:26:05.894Z,10.83
2018-05-23T22:28:34.403Z,11.17
2018-05-23T22:31:02.957Z,10.57
2018-05-23T22:33:31.454Z,11.07
2018-05-23T22:35:59.805Z,10.47
2018-05-23T22:38:29.599Z,11.50
2018-05-23T22:40:59.290Z,10.87
2018-05-23T22:43:27.784Z,10.90
2018-05-23T22:45:56.301Z,10.73
2018-05-23T22:48:24.863Z,11.10
2018-05-23T22:50:59.767Z,11.70
2018-05-23T22:53:28.329Z,10.63
2018-05-23T22:55:56.820Z,11.40
2018-05-23T22:58:25.488Z,11.40
2018-05-23T23:00:54.135Z,10.83
2018-05-23T23:03:22.707Z,10.80
2018-05-23T23:05:51.512Z,12.17
2018-05-23T23:08:20.215Z,11.13
2018-05-23T23:10:48.918Z,12.27
2018-05-23T23:13:17.569Z,13.10
2018-05-23T23:15:46.093Z,12.80
2018-05-23T23:18:14.675Z,13.77
2018-05-23T23:20:43.343Z,12.43
2018-05-23T23:23:12.073Z,12.33
2018-05-23T23:25:41.244Z,14.93
2018-05-23T23:28:10.559Z,12.73
2018-05-23T23:30:39.069Z,13.10
2018-05-23T23:33:07.650Z,14.63
2018-05-23T23:35:41.553Z,13.73
2018-05-23T23:38:10.250Z,13.20
2018-05-23T23:40:38.841Z,15.43
2018-05-23T23:43:07.419Z,14.90
2018-05-23T23:48:29.184Z,14.10
2018-05-23T23:50:57.719Z,15.07
2018-05-23T23:53:26.369Z,14.00
2018-05-23T23:55:54.879Z,13.73
2018-05-23T23:58:23.396Z,13.73
